Schofer, Pennsylvania
Current Conditions -  °F | °C
As of 12:54 PM on Monday 24 Nov 2014 (Local Time) from KRDG Reporting Station
Scattered Clouds Scattered Clouds  
Wind Chill: 22°   Ceiling: Unl
Heat Index: 22°   Visibility: 10mi
Dew Point: 13°   Wind: 18mph
Humidity: 59%   Direction: 200°SSW
Pressure: 29.56"   Gusts: 28mph
Location:  40.5336°N, 75.7775°W
Report Text: KRDG 241754Z AUTO 20016G24KT 10SM SCT031 22/13 A2956 RMK AO2 PK WND 21031/1744 SLP014 T02170133 10217 20178 56020
Loading
Personal Weather Stations






























Interactive Weather Map New forecast layout! Learn more

10-Day Weather Forecast

Advertisements
Track Severe Weather on mobile